CheckWX is a tool to help pilots better visualize weather data.  It is not intended as a substitute for an official pre-flight weather briefing.

11:06:36 UTC

KCJR METAR
Culpeper Regional Airport
Culpeper, Virginia, USA
Current

12 mins ago

KCJR 041055Z AUTO 00000KT 10SM CLR 03/02 A2999 RMK AO2 T00310021
Observed
Apr-4 @ 10:55 UTC
Visibility
Flight Rules
VFR
Cloud Levels
  • Clear skies
Temperature
C / 37°F
Dewpoint
C / 36°F
Humidity
93%
Altimeter
29.99" Hg
Pressure
1015.62 hPa
Previous

32 mins ago

KCJR 041035Z AUTO 00000KT 10SM CLR 04/01 A2999 RMK AO2 T00360012
Observed
Apr-4 @ 10:35 UTC
Visibility
Flight Rules
VFR
Cloud Levels
  • Clear skies
Temperature
C / 39°F
Dewpoint
C / 34°F
Humidity
81%
Altimeter
29.99" Hg
Pressure
1015.62 hPa
Previous

52 mins ago

KCJR 041015Z AUTO 00000KT 10SM CLR 04/02 A2999 RMK AO2 T00380020
Observed
Apr-4 @ 10:15 UTC
Visibility
Flight Rules
VFR
Cloud Levels
  • Clear skies
Temperature
C / 39°F
Dewpoint
C / 36°F
Humidity
87%
Altimeter
29.99" Hg
Pressure
1015.62 hPa